createdAt,value
2019-06-01T00:01:32.176Z,86.14
2019-06-01T00:03:59.300Z,86.07
2019-06-01T00:06:26.709Z,86.02
2019-06-01T00:08:53.508Z,86.06
2019-06-01T00:11:20.455Z,86.02
2019-06-01T00:13:47.728Z,86.03
2019-06-01T00:16:14.677Z,85.93
2019-06-01T00:18:41.806Z,85.92
2019-06-01T00:21:08.696Z,85.95
2019-06-01T00:23:35.840Z,86.50
2019-06-01T00:26:02.893Z,86.35
2019-06-01T00:28:29.648Z,86.08
2019-06-01T00:30:56.652Z,86.46
2019-06-01T00:33:23.488Z,86.09
2019-06-01T00:35:51.669Z,86.16
2019-06-01T00:38:18.621Z,86.25
2019-06-01T00:40:45.966Z,85.87
2019-06-01T00:43:12.926Z,86.14
2019-06-01T00:45:40.121Z,86.67
2019-06-01T00:48:07.068Z,86.89
2019-06-01T00:50:34.049Z,86.69
2019-06-01T00:53:01.092Z,86.44
2019-06-01T00:55:28.037Z,86.30
2019-06-01T00:57:54.902Z,87.24
2019-06-01T01:00:21.581Z,86.99
2019-06-01T01:02:48.375Z,87.10
2019-06-01T01:05:16.207Z,87.05
2019-06-01T01:07:44.398Z,86.75
2019-06-01T01:10:11.764Z,87.09
2019-06-01T01:12:57.243Z,87.20
2019-06-01T01:15:25.618Z,86.88
2019-06-01T01:17:52.503Z,86.62
2019-06-01T01:20:19.180Z,86.75
2019-06-01T01:22:46.145Z,86.89
2019-06-01T01:25:13.714Z,86.98
2019-06-01T01:27:40.352Z,86.77
2019-06-01T01:30:07.374Z,86.62
2019-06-01T01:32:35.286Z,86.89
2019-06-01T01:35:02.648Z,86.78
2019-06-01T01:37:31.611Z,85.98
2019-06-01T01:39:58.644Z,86.05
2019-06-01T01:42:25.505Z,86.24
2019-06-01T01:44:52.515Z,86.29
2019-06-01T01:47:20.414Z,86.40
2019-06-01T01:49:47.010Z,86.13
2019-06-01T01:52:13.876Z,86.22
2019-06-01T01:54:40.438Z,86.35
2019-06-01T01:57:07.368Z,86.63
2019-06-01T01:59:34.210Z,86.64
2019-06-01T02:02:01.041Z,87.02
2019-06-01T02:04:28.121Z,86.61
2019-06-01T02:06:55.920Z,86.67
2019-06-01T02:09:22.926Z,86.85
2019-06-01T02:11:49.494Z,87.09
2019-06-01T02:14:16.156Z,87.35
2019-06-01T02:16:44.080Z,87.60
2019-06-01T02:19:10.821Z,87.11
2019-06-01T02:21:37.764Z,86.49
2019-06-01T02:24:04.714Z,86.62
2019-06-01T02:26:31.480Z,86.39
2019-06-01T02:28:59.513Z,86.72
2019-06-01T02:31:40.654Z,87.07
2019-06-01T02:33:56.293Z,86.75
2019-06-01T02:36:23.628Z,87.08
2019-06-01T02:38:50.791Z,87.04
2019-06-01T02:41:17.530Z,86.54
2019-06-01T02:43:44.329Z,86.28
2019-06-01T02:46:11.525Z,86.06
2019-06-01T02:48:39.619Z,86.58
2019-06-01T02:51:06.745Z,86.57
2019-06-01T02:53:33.494Z,86.75
2019-06-01T02:56:00.450Z,86.60
2019-06-01T02:58:27.202Z,86.48
2019-06-01T03:01:09.243Z,86.53
2019-06-01T03:03:36.119Z,86.16
2019-06-01T03:06:03.492Z,85.95
2019-06-01T03:08:30.960Z,86.33
2019-06-01T03:10:59.689Z,86.23
2019-06-01T03:13:27.187Z,85.99
2019-06-01T03:15:55.991Z,87.04
2019-06-01T03:18:23.124Z,87.15
2019-06-01T03:20:52.671Z,86.45
2019-06-01T03:23:21.314Z,86.18
2019-06-01T03:25:49.937Z,85.93
2019-06-01T03:28:17.772Z,86.04
2019-06-01T03:30:45.850Z,86.00
2019-06-01T03:33:14.284Z,85.70
2019-06-01T03:35:41.315Z,86.35
2019-06-01T03:38:09.264Z,86.31
2019-06-01T03:40:36.435Z,85.95
2019-06-01T03:43:04.893Z,87.19
2019-06-01T03:45:32.732Z,87.55
2019-06-01T03:48:00.522Z,87.06
2019-06-01T03:50:27.958Z,87.00
2019-06-01T03:52:55.117Z,86.08
2019-06-01T03:55:21.875Z,85.88
2019-06-01T03:57:49.306Z,86.02
2019-06-01T04:00:17.307Z,86.61
2019-06-01T04:02:44.120Z,86.79
2019-06-01T04:05:11.445Z,86.16
2019-06-01T04:07:39.054Z,86.42
2019-06-01T04:10:06.090Z,85.44
2019-06-01T04:12:33.062Z,85.12
2019-06-01T04:14:59.838Z,85.00
2019-06-01T04:17:26.570Z,84.95
2019-06-01T04:19:53.495Z,85.08
2019-06-01T04:22:20.920Z,85.29
2019-06-01T04:24:47.767Z,85.17
2019-06-01T04:27:14.711Z,85.74
2019-06-01T04:29:41.757Z,85.44
2019-06-01T04:32:09.136Z,85.14
2019-06-01T04:34:35.951Z,84.76
2019-06-01T04:37:03.566Z,84.56
2019-06-01T04:39:30.579Z,84.34
2019-06-01T04:41:57.464Z,84.11
2019-06-01T04:44:24.371Z,83.80
2019-06-01T04:46:51.276Z,83.05
2019-06-01T04:49:18.500Z,82.74
2019-06-01T04:51:45.640Z,82.68
2019-06-01T04:54:14.457Z,83.48
2019-06-01T04:56:41.094Z,82.84
2019-06-01T04:59:08.888Z,81.84
2019-06-01T05:01:35.944Z,82.11
2019-06-01T05:04:03.046Z,81.80
2019-06-01T05:06:29.750Z,81.69
2019-06-01T05:08:56.581Z,82.77
2019-06-01T05:11:23.313Z,83.46
2019-06-01T05:13:50.568Z,84.71
2019-06-01T05:16:17.333Z,84.61
2019-06-01T05:18:44.294Z,84.43
2019-06-01T05:21:12.616Z,83.85
2019-06-01T05:23:40.366Z,83.83
2019-06-01T05:26:08.674Z,83.61
2019-06-01T05:28:35.822Z,84.02
2019-06-01T05:31:02.567Z,84.44
2019-06-01T05:33:37.360Z,83.56
2019-06-01T05:35:58.304Z,83.69
2019-06-01T05:38:25.004Z,83.75
2019-06-01T05:40:51.684Z,83.52
2019-06-01T05:43:21.123Z,83.71
2019-06-01T05:45:47.311Z,84.19
2019-06-01T05:48:22.910Z,83.96
2019-06-01T05:50:42.865Z,84.89
2019-06-01T05:53:10.421Z,85.37
2019-06-01T05:55:37.220Z,84.37
2019-06-01T05:58:04.116Z,84.95
2019-06-01T06:00:38.409Z,84.52
2019-06-01T06:03:05.310Z,84.77
2019-06-01T06:05:32.239Z,84.38
2019-06-01T06:07:59.470Z,84.06
2019-06-01T06:10:26.192Z,84.19
2019-06-01T06:12:52.921Z,84.67
2019-06-01T06:15:19.995Z,83.39
2019-06-01T06:17:46.842Z,84.46
2019-06-01T06:20:13.822Z,84.74
2019-06-01T06:22:41.370Z,84.41
2019-06-01T06:25:09.948Z,84.31
2019-06-01T06:27:36.725Z,83.76
2019-06-01T06:30:03.959Z,83.88
2019-06-01T06:32:32.926Z,83.77
2019-06-01T06:35:00.044Z,83.83
2019-06-01T06:37:26.804Z,83.64
2019-06-01T06:39:53.500Z,83.45
2019-06-01T06:42:20.427Z,82.88
2019-06-01T06:44:47.681Z,83.73
2019-06-01T06:47:14.753Z,82.52
2019-06-01T06:49:41.757Z,82.05
2019-06-01T06:52:08.880Z,82.55
2019-06-01T06:54:35.924Z,83.42
2019-06-01T06:57:02.749Z,83.03
2019-06-01T06:59:29.562Z,81.98
2019-06-01T07:01:56.369Z,82.72
2019-06-01T07:04:23.520Z,81.96
2019-06-01T07:06:50.194Z,82.25
2019-06-01T07:09:17.887Z,82.37
2019-06-01T07:11:45.046Z,83.36
2019-06-01T07:14:12.070Z,81.97
2019-06-01T07:16:38.745Z,82.70
2019-06-01T07:19:05.698Z,82.10
2019-06-01T07:21:32.420Z,81.62
2019-06-01T07:23:59.321Z,80.73
2019-06-01T07:26:26.304Z,80.58
2019-06-01T07:28:53.982Z,82.15
2019-06-01T07:31:22.532Z,80.90
2019-06-01T07:33:50.332Z,81.09
2019-06-01T07:36:17.780Z,79.66
2019-06-01T07:38:45.318Z,79.80
2019-06-01T07:41:12.668Z,79.49
2019-06-01T07:43:39.954Z,79.72
2019-06-01T07:46:07.286Z,79.25
2019-06-01T07:48:34.642Z,77.52
2019-06-01T07:51:02.121Z,76.40
2019-06-01T07:53:29.869Z,77.09
2019-06-01T07:55:57.392Z,76.90
2019-06-01T07:58:24.941Z,77.51
2019-06-01T08:00:52.467Z,77.32
2019-06-01T08:03:19.894Z,77.03
2019-06-01T08:05:47.326Z,77.42
2019-06-01T08:08:15.305Z,77.78
2019-06-01T08:10:43.610Z,79.86
2019-06-01T08:13:11.324Z,79.21
2019-06-01T08:15:39.015Z,79.07
2019-06-01T08:18:06.579Z,79.45
2019-06-01T08:20:34.305Z,78.53
2019-06-01T08:23:01.565Z,78.28
2019-06-01T08:25:30.628Z,78.33
2019-06-01T08:27:58.327Z,77.63
2019-06-01T08:30:26.434Z,76.76
2019-06-01T08:32:53.846Z,76.12
2019-06-01T08:35:21.025Z,76.10
2019-06-01T08:37:48.492Z,76.87
2019-06-01T08:40:16.428Z,75.55
2019-06-01T08:42:43.914Z,75.21
2019-06-01T08:45:11.716Z,75.18
2019-06-01T08:47:39.521Z,73.93
2019-06-01T08:50:08.454Z,73.25
2019-06-01T08:52:35.931Z,72.36
2019-06-01T08:55:04.364Z,74.15
2019-06-01T08:57:34.580Z,72.86
2019-06-01T09:00:02.531Z,72.34
2019-06-01T09:02:30.859Z,71.91
2019-06-01T09:05:00.004Z,70.66
2019-06-01T09:07:27.240Z,72.65
2019-06-01T09:09:54.503Z,71.70
2019-06-01T09:12:21.921Z,71.38
2019-06-01T09:14:49.169Z,69.87
2019-06-01T09:17:18.758Z,70.15
2019-06-01T09:19:46.075Z,67.46
2019-06-01T09:22:13.891Z,68.39
2019-06-01T09:24:41.200Z,68.32
2019-06-01T09:27:08.906Z,66.69
2019-06-01T09:29:36.684Z,65.12
2019-06-01T09:32:04.442Z,65.19
2019-06-01T09:34:32.454Z,65.33
2019-06-01T09:37:00.039Z,65.05
2019-06-01T09:39:29.009Z,64.99
2019-06-01T09:41:56.911Z,64.35
2019-06-01T09:44:24.191Z,64.03
2019-06-01T09:46:51.628Z,65.17
2019-06-01T09:49:19.072Z,64.66
2019-06-01T09:51:46.446Z,63.22
2019-06-01T09:54:13.923Z,62.35
2019-06-01T09:56:41.618Z,63.08
2019-06-01T09:59:09.276Z,62.55
2019-06-01T10:01:36.782Z,59.40
2019-06-01T10:04:06.568Z,59.01
2019-06-01T10:06:34.694Z,61.62
2019-06-01T10:09:02.666Z,59.00
2019-06-01T10:11:32.602Z,60.05
2019-06-01T10:14:02.203Z,56.25
2019-06-01T10:16:30.455Z,56.90
2019-06-01T10:18:57.789Z,58.21
2019-06-01T10:21:26.379Z,60.93
2019-06-01T10:23:54.082Z,57.14
2019-06-01T10:26:21.716Z,54.52
2019-06-01T10:28:49.271Z,54.66
2019-06-01T10:31:16.617Z,54.88
2019-06-01T10:33:44.405Z,56.13
2019-06-01T10:36:20.771Z,56.06
2019-06-01T10:38:41.517Z,56.06
2019-06-01T10:41:08.936Z,54.89
2019-06-01T10:43:37.611Z,54.72
2019-06-01T10:46:05.018Z,55.94
2019-06-01T10:48:34.402Z,55.21
2019-06-01T10:51:01.940Z,55.54
2019-06-01T10:53:29.319Z,55.71
2019-06-01T10:55:56.962Z,57.73
2019-06-01T10:58:25.841Z,51.79
2019-06-01T11:00:53.689Z,53.63
2019-06-01T11:03:21.370Z,54.19
2019-06-01T11:05:49.240Z,54.41
2019-06-01T11:08:16.897Z,56.04
2019-06-01T11:10:44.224Z,54.75
2019-06-01T11:13:11.479Z,53.89
2019-06-01T11:15:39.099Z,51.16
2019-06-01T11:18:06.474Z,53.01
2019-06-01T11:20:35.108Z,54.01
2019-06-01T11:23:02.788Z,54.66
2019-06-01T11:25:30.615Z,52.69
2019-06-01T11:27:58.022Z,50.25
2019-06-01T11:30:26.956Z,49.14
2019-06-01T11:32:55.473Z,50.00
2019-06-01T11:35:22.921Z,52.08
2019-06-01T11:37:50.405Z,47.62
2019-06-01T11:40:17.873Z,47.64
2019-06-01T11:42:45.404Z,49.94
2019-06-01T11:45:12.919Z,50.03
2019-06-01T11:47:41.077Z,51.62
2019-06-01T11:50:08.854Z,52.73
2019-06-01T11:52:37.042Z,54.04
2019-06-01T11:55:06.134Z,53.63
2019-06-01T11:57:33.789Z,52.76
2019-06-01T12:00:03.603Z,48.26
2019-06-01T12:02:31.258Z,47.48
2019-06-01T12:04:58.588Z,44.77
2019-06-01T12:07:26.023Z,48.42
2019-06-01T12:09:53.212Z,48.41
2019-06-01T12:12:20.341Z,46.44
2019-06-01T12:14:48.131Z,45.78
2019-06-01T12:17:15.493Z,47.09
2019-06-01T12:19:43.161Z,49.35
2019-06-01T12:22:10.385Z,48.60
2019-06-01T12:24:38.771Z,48.62
2019-06-01T12:27:06.538Z,47.89
2019-06-01T12:29:33.968Z,45.88
2019-06-01T12:32:01.162Z,44.93
2019-06-01T12:34:28.756Z,44.12
2019-06-01T12:36:56.119Z,43.71
2019-06-01T12:39:23.705Z,42.68
2019-06-01T12:41:51.816Z,45.72
2019-06-01T12:44:19.649Z,42.01
2019-06-01T12:46:47.090Z,43.71
2019-06-01T12:49:14.688Z,43.14
2019-06-01T12:51:42.589Z,44.23
2019-06-01T12:54:10.615Z,43.44
2019-06-01T12:56:38.008Z,42.16
2019-06-01T12:59:05.511Z,43.53
2019-06-01T13:01:33.094Z,43.25
2019-06-01T13:04:01.206Z,45.30
2019-06-01T13:06:28.283Z,45.30
2019-06-01T13:08:55.720Z,43.55
2019-06-01T13:11:23.319Z,44.25
2019-06-01T13:13:51.433Z,45.80
2019-06-01T13:16:21.295Z,47.61
2019-06-01T13:18:49.508Z,47.59
2019-06-01T13:21:17.294Z,47.95
2019-06-01T13:23:45.446Z,48.14
2019-06-01T13:26:13.104Z,48.06
2019-06-01T13:28:41.660Z,47.65
2019-06-01T13:31:09.602Z,47.70
2019-06-01T13:33:36.948Z,47.64
2019-06-01T13:36:04.192Z,47.93
2019-06-01T13:38:31.837Z,47.90
2019-06-01T13:40:59.734Z,48.04
2019-06-01T13:43:27.007Z,48.77
2019-06-01T13:45:54.208Z,47.99
2019-06-01T13:48:21.322Z,47.63
2019-06-01T13:50:49.846Z,48.12
2019-06-01T13:53:17.110Z,47.97
2019-06-01T13:55:44.328Z,48.51
2019-06-01T13:58:11.527Z,47.63
2019-06-01T14:00:39.145Z,47.44
2019-06-01T14:03:06.425Z,48.60
2019-06-01T14:05:33.659Z,46.61
2019-06-01T14:08:01.091Z,48.70
2019-06-01T14:10:30.017Z,46.82
2019-06-01T14:12:57.921Z,46.55
2019-06-01T14:15:25.362Z,47.97
2019-06-01T14:17:52.808Z,45.23
2019-06-01T14:20:20.109Z,46.18
2019-06-01T14:22:47.956Z,47.05
2019-06-01T14:25:15.607Z,45.93
2019-06-01T14:27:43.012Z,47.02
2019-06-01T14:30:11.707Z,47.30
2019-06-01T14:32:39.969Z,47.36
2019-06-01T14:35:07.487Z,47.81
2019-06-01T14:37:34.847Z,46.54
2019-06-01T14:40:05.378Z,46.72
2019-06-01T14:42:32.965Z,46.86
2019-06-01T14:45:00.024Z,47.22
2019-06-01T14:47:27.794Z,47.14
2019-06-01T14:49:55.718Z,47.16
2019-06-01T14:52:23.315Z,47.05
2019-06-01T14:54:51.791Z,47.20
2019-06-01T14:57:19.683Z,48.46
2019-06-01T14:59:47.837Z,47.70
2019-06-01T15:02:15.141Z,48.33
2019-06-01T15:04:42.548Z,47.76
2019-06-01T15:07:10.083Z,47.64
2019-06-01T15:09:37.282Z,48.89
2019-06-01T15:12:04.863Z,48.59
2019-06-01T15:14:32.615Z,48.16
2019-06-01T15:17:00.056Z,48.64
2019-06-01T15:19:27.725Z,49.83
2019-06-01T15:21:56.225Z,48.25
2019-06-01T15:24:23.472Z,49.04
2019-06-01T15:26:50.830Z,49.29
2019-06-01T15:29:19.458Z,49.53
2019-06-01T15:31:46.944Z,50.20
2019-06-01T15:34:14.278Z,49.81
2019-06-01T15:36:41.377Z,49.78
2019-06-01T15:39:23.458Z,49.34
2019-06-01T15:41:38.247Z,48.71
2019-06-01T15:44:05.669Z,48.82
2019-06-01T15:46:33.608Z,48.66
2019-06-01T15:49:01.894Z,49.11
2019-06-01T15:51:29.548Z,50.35
2019-06-01T15:53:56.985Z,49.99
2019-06-01T15:56:24.367Z,50.39
2019-06-01T15:58:54.611Z,49.99
2019-06-01T16:01:21.363Z,50.01
2019-06-01T16:03:49.086Z,50.33
2019-06-01T16:06:16.910Z,50.03
2019-06-01T16:08:44.383Z,49.53
2019-06-01T16:11:11.896Z,49.47
2019-06-01T16:13:39.315Z,49.68
2019-06-01T16:16:06.933Z,49.71
2019-06-01T16:18:34.487Z,49.36
2019-06-01T16:21:02.326Z,50.28
2019-06-01T16:23:30.125Z,50.07
2019-06-01T16:26:12.169Z,49.85
2019-06-01T16:28:27.201Z,49.82
2019-06-01T16:30:54.863Z,49.80
2019-06-01T16:33:22.655Z,50.66
2019-06-01T16:35:50.239Z,50.10
2019-06-01T16:38:17.698Z,50.98
2019-06-01T16:40:45.972Z,50.33
2019-06-01T16:43:13.678Z,50.42
2019-06-01T16:45:41.178Z,51.10
2019-06-01T16:48:08.855Z,50.43
2019-06-01T16:50:36.354Z,51.08
2019-06-01T16:53:04.171Z,51.15
2019-06-01T16:55:33.688Z,50.93
2019-06-01T16:58:01.408Z,51.05
2019-06-01T17:00:29.002Z,51.01
2019-06-01T17:02:56.865Z,51.32
2019-06-01T17:05:25.017Z,51.78
2019-06-01T17:07:52.651Z,52.22
2019-06-01T17:10:26.209Z,51.64
2019-06-01T17:12:50.027Z,51.93
2019-06-01T17:15:18.167Z,51.85
2019-06-01T17:17:46.922Z,52.25
2019-06-01T17:20:37.655Z,52.43
2019-06-01T17:23:22.880Z,52.69
2019-06-01T17:25:35.370Z,53.33
2019-06-01T17:28:03.480Z,52.38
2019-06-01T17:30:31.708Z,52.17
2019-06-01T17:33:00.279Z,53.21
2019-06-01T17:35:27.737Z,53.41
2019-06-01T17:37:55.424Z,53.74
2019-06-01T17:40:36.595Z,53.71
2019-06-01T17:42:53.254Z,53.65
2019-06-01T17:45:20.537Z,53.80
2019-06-01T17:47:47.999Z,54.08
2019-06-01T17:50:18.927Z,55.07
2019-06-01T17:52:46.293Z,54.65
2019-06-01T17:55:28.031Z,54.57
2019-06-01T17:57:55.719Z,54.82
2019-06-01T18:00:23.324Z,55.19
2019-06-01T18:02:51.025Z,55.21
2019-06-01T18:05:19.399Z,55.17
2019-06-01T18:07:46.883Z,55.36
2019-06-01T18:10:15.081Z,55.69
2019-06-01T18:12:43.685Z,56.63
2019-06-01T18:15:12.832Z,55.76
2019-06-01T18:17:40.147Z,55.87
2019-06-01T18:20:08.830Z,56.08
2019-06-01T18:22:36.354Z,56.38
2019-06-01T18:25:04.555Z,56.68
2019-06-01T18:27:32.344Z,57.01
2019-06-01T18:29:59.817Z,57.36
2019-06-01T18:32:27.722Z,57.63
2019-06-01T18:34:55.210Z,58.00
2019-06-01T18:37:23.163Z,58.04
2019-06-01T18:39:51.533Z,57.99
2019-06-01T18:42:24.716Z,58.14
2019-06-01T18:44:52.343Z,58.11
2019-06-01T18:47:31.979Z,58.39
2019-06-01T18:49:50.408Z,58.52
2019-06-01T18:52:17.985Z,59.05
2019-06-01T18:54:45.355Z,59.07
2019-06-01T18:57:19.202Z,58.96
2019-06-01T18:59:42.707Z,59.62
2019-06-01T19:02:10.534Z,59.90
2019-06-01T19:04:38.139Z,60.35
2019-06-01T19:07:07.054Z,59.90
2019-06-01T19:09:34.794Z,60.38
2019-06-01T19:12:02.271Z,60.52
2019-06-01T19:14:30.354Z,60.66
2019-06-01T19:16:58.219Z,60.73
2019-06-01T19:19:25.949Z,60.96
2019-06-01T19:21:54.673Z,60.86
2019-06-01T19:24:22.073Z,60.93
2019-06-01T19:26:49.590Z,61.24
2019-06-01T19:29:17.381Z,61.61
2019-06-01T19:31:44.771Z,61.54
2019-06-01T19:34:12.973Z,61.74
2019-06-01T19:36:42.432Z,61.54
2019-06-01T19:39:11.134Z,61.91
2019-06-01T19:41:44.731Z,62.66
2019-06-01T19:44:09.353Z,63.04
2019-06-01T19:46:37.003Z,63.65
2019-06-01T19:49:04.456Z,64.18
2019-06-01T19:51:32.023Z,63.87
2019-06-01T19:53:59.373Z,64.15
2019-06-01T19:56:27.364Z,64.45
2019-06-01T19:58:55.821Z,64.54
2019-06-01T20:01:23.555Z,64.61
2019-06-01T20:03:51.358Z,64.80
2019-06-01T20:06:19.002Z,64.88
2019-06-01T20:08:45.929Z,65.23
2019-06-01T20:11:13.293Z,65.36
2019-06-01T20:13:40.902Z,65.29
2019-06-01T20:16:08.316Z,65.75
2019-06-01T20:18:35.963Z,65.92
2019-06-01T20:21:03.229Z,66.65
2019-06-01T20:23:30.838Z,66.74
2019-06-01T20:25:58.227Z,66.80
2019-06-01T20:28:26.703Z,67.28
2019-06-01T20:30:54.241Z,67.71
2019-06-01T20:33:22.674Z,67.88
2019-06-01T20:35:50.384Z,68.41
2019-06-01T20:38:18.486Z,68.81
2019-06-01T20:40:46.528Z,68.90
2019-06-01T20:43:14.668Z,70.99
2019-06-01T20:45:43.210Z,71.19
2019-06-01T20:48:10.945Z,71.19
2019-06-01T20:50:39.362Z,70.11
2019-06-01T20:53:06.981Z,69.73
2019-06-01T20:55:34.619Z,69.35
2019-06-01T20:58:02.210Z,69.51
2019-06-01T21:00:31.957Z,69.47
2019-06-01T21:02:58.991Z,69.57
2019-06-01T21:05:26.251Z,69.59
2019-06-01T21:07:57.094Z,69.65
2019-06-01T21:10:24.115Z,70.12
2019-06-01T21:12:54.857Z,70.16
2019-06-01T21:15:23.399Z,70.19
2019-06-01T21:17:51.091Z,69.88
2019-06-01T21:20:25.334Z,70.17
2019-06-01T21:22:48.700Z,69.93
2019-06-01T21:25:16.833Z,69.82
2019-06-01T21:27:44.426Z,69.85
2019-06-01T21:30:13.065Z,70.28
2019-06-01T21:32:40.626Z,70.20
2019-06-01T21:35:08.860Z,70.31
2019-06-01T21:37:36.365Z,70.22
2019-06-01T21:40:04.651Z,70.28
2019-06-01T21:42:32.432Z,70.56
2019-06-01T21:45:00.359Z,70.74
2019-06-01T21:47:29.189Z,70.67
2019-06-01T21:49:56.888Z,70.94
2019-06-01T21:52:24.849Z,70.91
2019-06-01T21:54:53.172Z,70.89
2019-06-01T21:57:22.221Z,70.79
2019-06-01T21:59:49.923Z,71.20
2019-06-01T22:02:18.704Z,71.54
2019-06-01T22:04:46.093Z,71.51
2019-06-01T22:07:13.525Z,72.32
2019-06-01T22:09:41.387Z,72.99
2019-06-01T22:12:08.894Z,73.08
2019-06-01T22:14:36.587Z,73.42
2019-06-01T22:17:03.965Z,73.69
2019-06-01T22:19:31.758Z,73.71
2019-06-01T22:21:59.326Z,73.53
2019-06-01T22:24:28.302Z,73.77
2019-06-01T22:26:56.011Z,74.15
2019-06-01T22:29:24.405Z,74.16
2019-06-01T22:31:53.511Z,73.77
2019-06-01T22:34:20.956Z,74.59
2019-06-01T22:36:48.349Z,74.38
2019-06-01T22:39:15.750Z,75.23
2019-06-01T22:41:45.222Z,75.55
2019-06-01T22:44:12.596Z,75.28
2019-06-01T22:46:39.985Z,75.89
2019-06-01T22:49:07.585Z,75.91
2019-06-01T22:51:35.239Z,75.78
2019-06-01T22:54:03.121Z,75.57
2019-06-01T22:56:31.520Z,75.69
2019-06-01T22:58:59.249Z,75.63
2019-06-01T23:01:26.962Z,75.53
2019-06-01T23:03:54.587Z,75.46
2019-06-01T23:06:22.917Z,75.63
2019-06-01T23:08:50.453Z,75.55
2019-06-01T23:11:18.093Z,75.73
2019-06-01T23:13:53.308Z,75.87
2019-06-01T23:16:16.671Z,76.00
2019-06-01T23:18:44.392Z,76.24
2019-06-01T23:21:11.968Z,76.26
2019-06-01T23:23:39.489Z,76.39
2019-06-01T23:26:07.040Z,76.40
2019-06-01T23:28:38.443Z,76.59
2019-06-01T23:31:03.673Z,76.69
2019-06-01T23:33:31.054Z,76.72
2019-06-01T23:35:58.962Z,76.79
2019-06-01T23:38:26.647Z,77.54
2019-06-01T23:40:54.298Z,78.18
2019-06-01T23:43:22.674Z,78.68
2019-06-01T23:45:50.326Z,78.53
2019-06-01T23:48:18.007Z,78.61
2019-06-01T23:50:45.276Z,78.26
2019-06-01T23:53:13.948Z,78.22
2019-06-01T23:55:41.657Z,78.13
2019-06-01T23:58:08.921Z,78.14
